sensor_id;sensor_type;location;lat;lon;timestamp;pressure;altitude;pressure_sealevel;temperature;humidity
48622;BME280;34421;48.944;9.460;2023-03-18T00:01:23;98077.69;;;10.11;64.59
48622;BME280;34421;48.944;9.460;2023-03-18T00:03:48;98068.97;;;10.04;65.17
48622;BME280;34421;48.944;9.460;2023-03-18T00:06:14;98066.56;;;9.96;64.91
48622;BME280;34421;48.944;9.460;2023-03-18T00:08:40;98069.66;;;9.93;64.78
48622;BME280;34421;48.944;9.460;2023-03-18T00:11:06;98065.56;;;9.90;65.05
48622;BME280;34421;48.944;9.460;2023-03-18T00:13:32;98071.56;;;9.86;66.02
48622;BME280;34421;48.944;9.460;2023-03-18T00:15:59;98071.97;;;9.82;65.81
48622;BME280;34421;48.944;9.460;2023-03-18T00:18:25;98071.59;;;9.79;65.74
48622;BME280;34421;48.944;9.460;2023-03-18T00:20:50;98079.78;;;9.77;66.19
48622;BME280;34421;48.944;9.460;2023-03-18T00:23:16;98079.16;;;9.75;65.37
48622;BME280;34421;48.944;9.460;2023-03-18T00:25:42;98087.56;;;9.72;66.25
48622;BME280;34421;48.944;9.460;2023-03-18T00:28:07;98086.38;;;9.68;66.46
48622;BME280;34421;48.944;9.460;2023-03-18T00:30:33;98087.44;;;9.67;65.83
48622;BME280;34421;48.944;9.460;2023-03-18T00:32:58;98092.47;;;9.75;66.77
48622;BME280;34421;48.944;9.460;2023-03-18T00:35:24;98083.84;;;9.80;66.50
48622;BME280;34421;48.944;9.460;2023-03-18T00:37:52;98094.44;;;9.87;66.35
48622;BME280;34421;48.944;9.460;2023-03-18T00:40:18;98089.13;;;9.87;65.82
48622;BME280;34421;48.944;9.460;2023-03-18T00:42:44;98096.91;;;9.88;66.52
48622;BME280;34421;48.944;9.460;2023-03-18T00:45:14;98090.53;;;9.89;65.67
48622;BME280;34421;48.944;9.460;2023-03-18T00:47:41;98089.94;;;9.87;66.84
48622;BME280;34421;48.944;9.460;2023-03-18T00:50:07;98098.75;;;9.88;66.62
48622;BME280;34421;48.944;9.460;2023-03-18T00:52:32;98090.97;;;9.86;65.71
48622;BME280;34421;48.944;9.460;2023-03-18T00:54:58;98094.28;;;9.81;66.52
48622;BME280;34421;48.944;9.460;2023-03-18T00:57:24;98098.19;;;9.79;65.83
48622;BME280;34421;48.944;9.460;2023-03-18T00:59:49;98105.59;;;9.70;66.59
48622;BME280;34421;48.944;9.460;2023-03-18T01:02:15;98113.41;;;9.65;66.22
48622;BME280;34421;48.944;9.460;2023-03-18T01:04:41;98112.78;;;9.63;65.97
48622;BME280;34421;48.944;9.460;2023-03-18T01:07:06;98113.00;;;9.62;66.27
48622;BME280;34421;48.944;9.460;2023-03-18T01:09:31;98121.59;;;9.57;66.66
48622;BME280;34421;48.944;9.460;2023-03-18T01:11:57;98114.06;;;9.54;67.23
48622;BME280;34421;48.944;9.460;2023-03-18T01:14:22;98101.00;;;9.52;66.30
48622;BME280;34421;48.944;9.460;2023-03-18T01:16:47;98105.06;;;9.55;66.83
48622;BME280;34421;48.944;9.460;2023-03-18T01:19:13;98112.00;;;9.56;66.93
48622;BME280;34421;48.944;9.460;2023-03-18T01:21:38;98103.44;;;9.54;66.77
48622;BME280;34421;48.944;9.460;2023-03-18T01:24:03;98108.16;;;9.52;66.08
48622;BME280;34421;48.944;9.460;2023-03-18T01:26:29;98103.47;;;9.47;67.05
48622;BME280;34421;48.944;9.460;2023-03-18T01:28:54;98108.97;;;9.46;66.28
48622;BME280;34421;48.944;9.460;2023-03-18T01:31:19;98108.97;;;9.46;66.69
48622;BME280;34421;48.944;9.460;2023-03-18T01:33:45;98107.78;;;9.42;66.74
48622;BME280;34421;48.944;9.460;2023-03-18T01:36:11;98111.91;;;9.38;67.24
48622;BME280;34421;48.944;9.460;2023-03-18T01:38:37;98107.44;;;9.31;66.64
48622;BME280;34421;48.944;9.460;2023-03-18T01:41:02;98113.16;;;9.28;67.68
48622;BME280;34421;48.944;9.460;2023-03-18T01:43:29;98107.44;;;9.25;67.35
48622;BME280;34421;48.944;9.460;2023-03-18T01:45:56;98113.59;;;9.19;66.73
48622;BME280;34421;48.944;9.460;2023-03-18T01:48:24;98112.59;;;9.13;67.08
48622;BME280;34421;48.944;9.460;2023-03-18T01:50:51;98123.44;;;9.11;67.58
48622;BME280;34421;48.944;9.460;2023-03-18T01:53:18;98113.22;;;9.08;67.43
48622;BME280;34421;48.944;9.460;2023-03-18T01:55:44;98107.94;;;9.02;67.60
48622;BME280;34421;48.944;9.460;2023-03-18T01:58:12;98109.78;;;9.01;67.37
48622;BME280;34421;48.944;9.460;2023-03-18T02:00:42;98094.06;;;9.00;67.78
48622;BME280;34421;48.944;9.460;2023-03-18T02:03:09;98107.53;;;9.05;66.94
48622;BME280;34421;48.944;9.460;2023-03-18T02:05:34;98105.03;;;9.10;67.69
48622;BME280;34421;48.944;9.460;2023-03-18T02:07:59;98104.84;;;9.11;66.76
48622;BME280;34421;48.944;9.460;2023-03-18T02:10:26;98105.47;;;9.13;67.66
48622;BME280;34421;48.944;9.460;2023-03-18T02:12:59;98095.84;;;9.19;67.43
48622;BME280;34421;48.944;9.460;2023-03-18T02:15:25;98094.56;;;9.22;66.82
48622;BME280;34421;48.944;9.460;2023-03-18T02:17:56;98098.88;;;9.23;66.95
48622;BME280;34421;48.944;9.460;2023-03-18T02:22:49;98096.38;;;9.34;67.26
48622;BME280;34421;48.944;9.460;2023-03-18T02:27:54;98100.84;;;9.41;67.58
48622;BME280;34421;48.944;9.460;2023-03-18T02:30:25;98103.28;;;9.42;67.31
48622;BME280;34421;48.944;9.460;2023-03-18T02:32:51;98103.66;;;9.46;67.12
48622;BME280;34421;48.944;9.460;2023-03-18T02:35:18;98100.00;;;9.47;67.65
48622;BME280;34421;48.944;9.460;2023-03-18T02:37:44;98095.69;;;9.46;67.41
48622;BME280;34421;48.944;9.460;2023-03-18T02:40:15;98110.00;;;9.45;67.14
48622;BME280;34421;48.944;9.460;2023-03-18T02:42:42;98106.97;;;9.41;67.29
48622;BME280;34421;48.944;9.460;2023-03-18T02:45:09;98114.38;;;9.32;68.02
48622;BME280;34421;48.944;9.460;2023-03-18T02:47:37;98115.41;;;9.25;67.84
48622;BME280;34421;48.944;9.460;2023-03-18T02:50:04;98117.31;;;9.11;68.15
48622;BME280;34421;48.944;9.460;2023-03-18T02:52:30;98114.69;;;8.98;68.12
48622;BME280;34421;48.944;9.460;2023-03-18T02:54:55;98126.56;;;8.88;68.53
48622;BME280;34421;48.944;9.460;2023-03-18T02:57:23;98121.47;;;8.80;68.63
48622;BME280;34421;48.944;9.460;2023-03-18T02:59:48;98117.38;;;8.71;68.05
48622;BME280;34421;48.944;9.460;2023-03-18T03:02:13;98119.47;;;8.69;68.76
48622;BME280;34421;48.944;9.460;2023-03-18T03:04:38;98120.47;;;8.68;68.85
48622;BME280;34421;48.944;9.460;2023-03-18T03:07:04;98121.50;;;8.67;68.49
48622;BME280;34421;48.944;9.460;2023-03-18T03:09:29;98115.38;;;8.66;68.93
48622;BME280;34421;48.944;9.460;2023-03-18T03:11:55;98124.16;;;8.67;68.27
48622;BME280;34421;48.944;9.460;2023-03-18T03:14:20;98115.97;;;8.62;68.75
48622;BME280;34421;48.944;9.460;2023-03-18T03:16:45;98126.00;;;8.60;69.19
48622;BME280;34421;48.944;9.460;2023-03-18T03:19:11;98130.47;;;8.59;69.05
48622;BME280;34421;48.944;9.460;2023-03-18T03:21:36;98131.09;;;8.55;68.58
48622;BME280;34421;48.944;9.460;2023-03-18T03:24:02;98136.81;;;8.52;68.89
48622;BME280;34421;48.944;9.460;2023-03-18T03:26:28;98135.38;;;8.49;68.60
48622;BME280;34421;48.944;9.460;2023-03-18T03:28:53;98133.97;;;8.47;68.75
48622;BME280;34421;48.944;9.460;2023-03-18T03:31:19;98138.22;;;8.48;69.14
48622;BME280;34421;48.944;9.460;2023-03-18T03:33:44;98140.88;;;8.48;68.68
48622;BME280;34421;48.944;9.460;2023-03-18T03:36:11;98148.84;;;8.41;68.94
48622;BME280;34421;48.944;9.460;2023-03-18T03:38:36;98141.50;;;8.36;68.66
48622;BME280;34421;48.944;9.460;2023-03-18T03:41:02;98148.81;;;8.34;69.45
48622;BME280;34421;48.944;9.460;2023-03-18T03:43:27;98146.38;;;8.33;69.20
48622;BME280;34421;48.944;9.460;2023-03-18T03:45:52;98152.09;;;8.36;69.48
48622;BME280;34421;48.944;9.460;2023-03-18T03:48:18;98162.34;;;8.39;69.45
48622;BME280;34421;48.944;9.460;2023-03-18T03:50:43;98158.41;;;8.35;69.64
48622;BME280;34421;48.944;9.460;2023-03-18T03:53:08;98165.38;;;8.36;69.76
48622;BME280;34421;48.944;9.460;2023-03-18T03:55:34;98159.25;;;8.36;69.64
48622;BME280;34421;48.944;9.460;2023-03-18T03:58:00;98162.09;;;8.28;69.25
48622;BME280;34421;48.944;9.460;2023-03-18T04:00:25;98162.09;;;8.21;69.67
48622;BME280;34421;48.944;9.460;2023-03-18T04:02:51;98154.91;;;8.15;69.85
48622;BME280;34421;48.944;9.460;2023-03-18T04:05:17;98158.38;;;8.09;69.68
48622;BME280;34421;48.944;9.460;2023-03-18T04:07:43;98167.78;;;8.05;69.53
48622;BME280;34421;48.944;9.460;2023-03-18T04:10:09;98172.25;;;7.97;69.84
48622;BME280;34421;48.944;9.460;2023-03-18T04:12:36;98177.75;;;7.96;69.76
48622;BME280;34421;48.944;9.460;2023-03-18T04:15:02;98172.03;;;7.92;69.72
48622;BME280;34421;48.944;9.460;2023-03-18T04:17:27;98167.75;;;7.91;69.82
48622;BME280;34421;48.944;9.460;2023-03-18T04:19:52;98171.22;;;7.92;69.92
48622;BME280;34421;48.944;9.460;2023-03-18T04:22:18;98163.25;;;7.92;70.48
48622;BME280;34421;48.944;9.460;2023-03-18T04:24:43;98167.75;;;7.91;70.30
48622;BME280;34421;48.944;9.460;2023-03-18T04:27:09;98168.75;;;7.84;70.20
48622;BME280;34421;48.944;9.460;2023-03-18T04:29:34;98163.38;;;7.64;70.47
48622;BME280;34421;48.944;9.460;2023-03-18T04:31:59;98164.56;;;7.54;70.64
48622;BME280;34421;48.944;9.460;2023-03-18T04:34:24;98155.63;;;7.56;70.65
48622;BME280;34421;48.944;9.460;2023-03-18T04:36:50;98168.25;;;7.53;70.74
48622;BME280;34421;48.944;9.460;2023-03-18T04:39:15;98165.38;;;7.55;70.92
48622;BME280;34421;48.944;9.460;2023-03-18T04:41:40;98169.88;;;7.54;70.98
48622;BME280;34421;48.944;9.460;2023-03-18T04:44:05;98177.00;;;7.54;70.80
48622;BME280;34421;48.944;9.460;2023-03-18T04:46:30;98169.47;;;7.58;70.69
48622;BME280;34421;48.944;9.460;2023-03-18T04:48:56;98174.78;;;7.58;70.24
48622;BME280;34421;48.944;9.460;2023-03-18T04:51:22;98169.69;;;7.56;70.62
48622;BME280;34421;48.944;9.460;2023-03-18T04:53:47;98171.53;;;7.56;70.38
48622;BME280;34421;48.944;9.460;2023-03-18T04:56:12;98174.34;;;7.47;70.71
48622;BME280;34421;48.944;9.460;2023-03-18T04:58:38;98185.31;;;7.44;70.63
48622;BME280;34421;48.944;9.460;2023-03-18T05:01:03;98178.56;;;7.35;70.21
48622;BME280;34421;48.944;9.460;2023-03-18T05:03:28;98176.09;;;7.34;70.63
48622;BME280;34421;48.944;9.460;2023-03-18T05:05:53;98174.66;;;7.31;70.32
48622;BME280;34421;48.944;9.460;2023-03-18T05:08:19;98185.25;;;7.31;70.64
48622;BME280;34421;48.944;9.460;2023-03-18T05:10:44;98181.38;;;7.27;70.05
48622;BME280;34421;48.944;9.460;2023-03-18T05:13:09;98178.09;;;7.25;70.01
48622;BME280;34421;48.944;9.460;2023-03-18T05:15:35;98174.84;;;7.23;70.67
48622;BME280;34421;48.944;9.460;2023-03-18T05:18:01;98183.78;;;7.22;70.01
48622;BME280;34421;48.944;9.460;2023-03-18T05:20:28;98179.47;;;7.14;70.20
48622;BME280;34421;48.944;9.460;2023-03-18T05:22:54;98179.03;;;7.11;69.92
48622;BME280;34421;48.944;9.460;2023-03-18T05:25:19;98180.06;;;7.10;70.37
48622;BME280;34421;48.944;9.460;2023-03-18T05:27:45;98180.66;;;7.05;70.70
48622;BME280;34421;48.944;9.460;2023-03-18T05:30:11;98184.72;;;7.07;69.86
48622;BME280;34421;48.944;9.460;2023-03-18T05:32:37;98174.97;;;7.08;70.70
48622;BME280;34421;48.944;9.460;2023-03-18T05:35:03;98180.44;;;7.06;69.85
48622;BME280;34421;48.944;9.460;2023-03-18T05:37:28;98175.34;;;7.05;70.27
48622;BME280;34421;48.944;9.460;2023-03-18T05:39:53;98186.31;;;7.02;70.96
48622;BME280;34421;48.944;9.460;2023-03-18T05:42:19;98181.22;;;7.00;70.90
48622;BME280;34421;48.944;9.460;2023-03-18T05:44:44;98190.78;;;7.01;70.93
48622;BME280;34421;48.944;9.460;2023-03-18T05:47:09;98194.25;;;7.02;70.00
48622;BME280;34421;48.944;9.460;2023-03-18T05:49:35;98195.09;;;7.02;70.21
48622;BME280;34421;48.944;9.460;2023-03-18T05:52:00;98190.78;;;7.01;69.79
48622;BME280;34421;48.944;9.460;2023-03-18T05:54:26;98190.34;;;6.98;69.75
48622;BME280;34421;48.944;9.460;2023-03-18T05:56:52;98184.88;;;6.99;69.70
48622;BME280;34421;48.944;9.460;2023-03-18T05:59:19;98185.88;;;6.98;69.53
48622;BME280;34421;48.944;9.460;2023-03-18T06:01:44;98187.94;;;6.96;69.68
48622;BME280;34421;48.944;9.460;2023-03-18T06:04:09;98189.56;;;6.97;70.13
48622;BME280;34421;48.944;9.460;2023-03-18T06:06:35;98195.25;;;7.01;69.77
48622;BME280;34421;48.944;9.460;2023-03-18T06:09:05;98189.16;;;7.00;69.57
48622;BME280;34421;48.944;9.460;2023-03-18T06:11:30;98193.03;;;7.04;69.88
48622;BME280;34421;48.944;9.460;2023-03-18T06:13:56;98200.19;;;7.11;69.07
48622;BME280;34421;48.944;9.460;2023-03-18T06:16:22;98195.38;;;7.14;69.59
48622;BME280;34421;48.944;9.460;2023-03-18T06:18:47;98197.41;;;7.19;69.22
48622;BME280;34421;48.944;9.460;2023-03-18T06:21:13;98198.66;;;7.23;69.62
48622;BME280;34421;48.944;9.460;2023-03-18T06:23:38;98194.22;;;7.30;69.58
48622;BME280;34421;48.944;9.460;2023-03-18T06:26:03;98196.31;;;7.41;68.57
48622;BME280;34421;48.944;9.460;2023-03-18T06:28:28;98200.44;;;7.50;68.84
48622;BME280;34421;48.944;9.460;2023-03-18T06:30:54;98197.00;;;7.57;68.83
48622;BME280;34421;48.944;9.460;2023-03-18T06:33:21;98201.91;;;7.60;68.00
48622;BME280;34421;48.944;9.460;2023-03-18T06:35:47;98197.25;;;7.68;68.85
48622;BME280;34421;48.944;9.460;2023-03-18T06:38:13;98210.75;;;7.80;68.91
48622;BME280;34421;48.944;9.460;2023-03-18T06:40:39;98212.19;;;7.89;68.82
48622;BME280;34421;48.944;9.460;2023-03-18T06:43:04;98212.22;;;8.03;68.74
48622;BME280;34421;48.944;9.460;2023-03-18T06:45:30;98202.88;;;8.13;68.30
48622;BME280;34421;48.944;9.460;2023-03-18T06:47:55;98217.38;;;8.24;67.99
48622;BME280;34421;48.944;9.460;2023-03-18T06:50:20;98219.41;;;8.35;68.04
48622;BME280;34421;48.944;9.460;2023-03-18T06:52:46;98219.09;;;8.52;67.56
48622;BME280;34421;48.944;9.460;2023-03-18T06:55:12;98217.03;;;8.67;67.16
48622;BME280;34421;48.944;9.460;2023-03-18T06:57:38;98215.00;;;8.82;67.09
48622;BME280;34421;48.944;9.460;2023-03-18T07:00:04;98220.72;;;8.99;66.18
48622;BME280;34421;48.944;9.460;2023-03-18T07:02:29;98226.59;;;9.15;66.53
48622;BME280;34421;48.944;9.460;2023-03-18T07:04:55;98222.50;;;9.32;65.73
48622;BME280;34421;48.944;9.460;2023-03-18T07:07:21;98223.47;;;9.44;65.76
48622;BME280;34421;48.944;9.460;2023-03-18T07:09:47;98225.25;;;9.64;64.23
48622;BME280;34421;48.944;9.460;2023-03-18T07:12:12;98223.47;;;10.02;63.80
48622;BME280;34421;48.944;9.460;2023-03-18T07:14:38;98224.72;;;11.13;62.12
48622;BME280;34421;48.944;9.460;2023-03-18T07:17:03;98226.97;;;11.90;60.54
48622;BME280;34421;48.944;9.460;2023-03-18T07:19:29;98215.88;;;12.77;57.98
48622;BME280;34421;48.944;9.460;2023-03-18T07:21:56;98226.94;;;15.94;53.52
48622;BME280;34421;48.944;9.460;2023-03-18T07:24:21;98224.41;;;19.00;44.45
48622;BME280;34421;48.944;9.460;2023-03-18T07:26:47;98220.59;;;21.25;39.35
48622;BME280;34421;48.944;9.460;2023-03-18T07:29:14;98222.44;;;23.15;36.47
48622;BME280;34421;48.944;9.460;2023-03-18T07:31:39;98225.38;;;24.29;32.73
48622;BME280;34421;48.944;9.460;2023-03-18T07:34:04;98214.78;;;25.71;30.79
48622;BME280;34421;48.944;9.460;2023-03-18T07:36:29;98212.84;;;26.98;27.65
48622;BME280;34421;48.944;9.460;2023-03-18T07:38:55;98225.50;;;27.67;27.01
48622;BME280;34421;48.944;9.460;2023-03-18T07:41:21;98220.91;;;27.50;26.46
48622;BME280;34421;48.944;9.460;2023-03-18T07:43:46;98216.25;;;28.61;24.93
48622;BME280;34421;48.944;9.460;2023-03-18T07:46:12;98218.16;;;30.22;23.65
48622;BME280;34421;48.944;9.460;2023-03-18T07:48:37;98215.47;;;30.78;22.13
48622;BME280;34421;48.944;9.460;2023-03-18T07:51:03;98209.91;;;30.34;23.46
48622;BME280;34421;48.944;9.460;2023-03-18T07:53:28;98210.31;;;31.64;21.35
48622;BME280;34421;48.944;9.460;2023-03-18T07:55:54;98207.72;;;32.77;21.08
48622;BME280;34421;48.944;9.460;2023-03-18T07:58:19;98203.50;;;33.68;19.38
48622;BME280;34421;48.944;9.460;2023-03-18T08:00:45;98200.22;;;34.73;18.41
48622;BME280;34421;48.944;9.460;2023-03-18T08:03:11;98204.81;;;35.32;17.30
48622;BME280;34421;48.944;9.460;2023-03-18T08:05:36;98198.31;;;36.07;17.10
48622;BME280;34421;48.944;9.460;2023-03-18T08:08:02;98197.88;;;36.78;16.37
48622;BME280;34421;48.944;9.460;2023-03-18T08:10:28;98201.16;;;37.15;16.11
48622;BME280;34421;48.944;9.460;2023-03-18T08:12:53;98195.63;;;37.80;15.69
48622;BME280;34421;48.944;9.460;2023-03-18T08:15:19;98195.94;;;38.36;15.42
48622;BME280;34421;48.944;9.460;2023-03-18T08:17:45;98198.59;;;39.38;14.50
48622;BME280;34421;48.944;9.460;2023-03-18T08:20:11;98201.91;;;40.12;14.35
48622;BME280;34421;48.944;9.460;2023-03-18T08:22:36;98192.50;;;40.37;13.63
48622;BME280;34421;48.944;9.460;2023-03-18T08:25:01;98196.22;;;40.91;13.28
48622;BME280;34421;48.944;9.460;2023-03-18T08:27:27;98199.75;;;41.50;13.10
48622;BME280;34421;48.944;9.460;2023-03-18T08:29:52;98188.50;;;42.00;12.97
48622;BME280;34421;48.944;9.460;2023-03-18T08:32:17;98193.88;;;42.34;12.70
48622;BME280;34421;48.944;9.460;2023-03-18T08:34:43;98197.38;;;42.78;12.44
48622;BME280;34421;48.944;9.460;2023-03-18T08:37:08;98183.34;;;43.31;12.10
48622;BME280;34421;48.944;9.460;2023-03-18T08:39:34;98184.69;;;43.59;11.74
48622;BME280;34421;48.944;9.460;2023-03-18T08:42:01;98185.88;;;43.91;11.68
48622;BME280;34421;48.944;9.460;2023-03-18T08:44:27;98188.84;;;44.00;11.50
48622;BME280;34421;48.944;9.460;2023-03-18T08:46:52;98194.63;;;44.22;11.35
48622;BME280;34421;48.944;9.460;2023-03-18T08:49:17;98193.31;;;44.69;10.99
48622;BME280;34421;48.944;9.460;2023-03-18T08:51:42;98195.63;;;45.12;10.60
48622;BME280;34421;48.944;9.460;2023-03-18T08:54:08;98187.81;;;45.67;9.86
48622;BME280;34421;48.944;9.460;2023-03-18T08:56:34;98189.84;;;46.02;9.65
48622;BME280;34421;48.944;9.460;2023-03-18T08:58:59;98181.59;;;46.07;8.88
48622;BME280;34421;48.944;9.460;2023-03-18T09:01:24;98175.06;;;46.10;9.21
48622;BME280;34421;48.944;9.460;2023-03-18T09:03:49;98174.81;;;46.40;8.42
48622;BME280;34421;48.944;9.460;2023-03-18T09:06:15;98170.66;;;46.75;7.75
48622;BME280;34421;48.944;9.460;2023-03-18T09:08:41;98176.34;;;46.94;7.43
48622;BME280;34421;48.944;9.460;2023-03-18T09:11:06;98166.28;;;47.15;7.71
48622;BME280;34421;48.944;9.460;2023-03-18T09:13:32;98172.81;;;47.43;7.72
48622;BME280;34421;48.944;9.460;2023-03-18T09:15:57;98169.31;;;47.39;7.53
48622;BME280;34421;48.944;9.460;2023-03-18T09:18:23;98174.38;;;47.62;7.15
48622;BME280;34421;48.944;9.460;2023-03-18T09:20:48;98156.72;;;47.80;6.53
48622;BME280;34421;48.944;9.460;2023-03-18T09:23:15;98159.56;;;47.99;7.27
48622;BME280;34421;48.944;9.460;2023-03-18T09:25:42;98166.91;;;47.96;7.18
48622;BME280;34421;48.944;9.460;2023-03-18T09:28:07;98166.28;;;48.29;7.00
48622;BME280;34421;48.944;9.460;2023-03-18T09:30:33;98161.22;;;48.33;7.11
48622;BME280;34421;48.944;9.460;2023-03-18T09:32:58;98163.91;;;48.27;6.65
48622;BME280;34421;48.944;9.460;2023-03-18T09:35:24;98158.28;;;48.18;6.70
48622;BME280;34421;48.944;9.460;2023-03-18T09:37:49;98149.50;;;47.88;6.51
48622;BME280;34421;48.944;9.460;2023-03-18T09:40:21;98160.91;;;47.48;6.58
48622;BME280;34421;48.944;9.460;2023-03-18T09:45:44;98166.78;;;47.22;6.72
48622;BME280;34421;48.944;9.460;2023-03-18T09:53:35;98148.09;;;47.93;6.41
48622;BME280;34421;48.944;9.460;2023-03-18T09:56:06;98138.34;;;48.22;6.17
48622;BME280;34421;48.944;9.460;2023-03-18T10:01:02;98141.94;;;48.41;5.86
48622;BME280;34421;48.944;9.460;2023-03-18T10:11:25;98140.63;;;48.60;6.04
48622;BME280;34421;48.944;9.460;2023-03-18T10:16:22;98145.03;;;48.61;6.28
48622;BME280;34421;48.944;9.460;2023-03-18T10:18:49;98140.44;;;48.64;5.41
48622;BME280;34421;48.944;9.460;2023-03-18T10:21:27;98133.00;;;48.33;5.90
48622;BME280;34421;48.944;9.460;2023-03-18T10:37:17;98117.13;;;46.66;6.32
48622;BME280;34421;48.944;9.460;2023-03-18T10:39:47;98123.50;;;46.35;7.03
48622;BME280;34421;48.944;9.460;2023-03-18T10:44:41;98127.69;;;46.53;6.91
48622;BME280;34421;48.944;9.460;2023-03-18T10:49:33;98116.81;;;45.76;7.07
48622;BME280;34421;48.944;9.460;2023-03-18T10:52:02;98104.81;;;45.63;7.29
48622;BME280;34421;48.944;9.460;2023-03-18T10:54:33;98100.88;;;45.60;7.24
48622;BME280;34421;48.944;9.460;2023-03-18T10:57:01;98103.69;;;45.25;7.52
48622;BME280;34421;48.944;9.460;2023-03-18T10:59:26;98110.00;;;44.66;8.34
48622;BME280;34421;48.944;9.460;2023-03-18T11:01:53;98118.66;;;43.87;8.17
48622;BME280;34421;48.944;9.460;2023-03-18T11:04:21;98101.69;;;43.33;8.79
48622;BME280;34421;48.944;9.460;2023-03-18T11:06:54;98104.84;;;43.35;8.07
48622;BME280;34421;48.944;9.460;2023-03-18T11:09:23;98100.53;;;43.46;7.88
48622;BME280;34421;48.944;9.460;2023-03-18T11:11:55;98098.53;;;43.14;8.08
48622;BME280;34421;48.944;9.460;2023-03-18T11:14:22;98092.63;;;42.92;8.37
48622;BME280;34421;48.944;9.460;2023-03-18T11:19:26;98093.09;;;41.31;9.06
48622;BME280;34421;48.944;9.460;2023-03-18T11:22:26;98085.25;;;40.10;9.84
48622;BME280;34421;48.944;9.460;2023-03-18T11:24:45;98084.16;;;39.67;10.83
48622;BME280;34421;48.944;9.460;2023-03-18T11:29:40;98081.31;;;38.77;10.97
48622;BME280;34421;48.944;9.460;2023-03-18T11:32:10;98079.47;;;38.56;11.46
48622;BME280;34421;48.944;9.460;2023-03-18T11:34:46;98083.78;;;38.60;10.82
48622;BME280;34421;48.944;9.460;2023-03-18T11:37:17;98086.22;;;39.59;10.54
48622;BME280;34421;48.944;9.460;2023-03-18T11:39:43;98089.50;;;39.88;10.76
48622;BME280;34421;48.944;9.460;2023-03-18T11:42:18;98081.81;;;39.61;10.38
48622;BME280;34421;48.944;9.460;2023-03-18T11:44:45;98074.97;;;37.88;11.45
48622;BME280;34421;48.944;9.460;2023-03-18T11:47:13;98087.16;;;35.53;12.79
48622;BME280;34421;48.944;9.460;2023-03-18T11:49:41;98082.03;;;33.68;14.17
48622;BME280;34421;48.944;9.460;2023-03-18T11:54:53;98086.53;;;31.17;16.29
48622;BME280;34421;48.944;9.460;2023-03-18T12:05:20;98076.94;;;27.84;18.70
48622;BME280;34421;48.944;9.460;2023-03-18T12:10:31;98078.69;;;26.91;21.44
48622;BME280;34421;48.944;9.460;2023-03-18T12:13:01;98063.06;;;26.53;21.07
48622;BME280;34421;48.944;9.460;2023-03-18T12:23:12;98061.41;;;25.39;21.85
48622;BME280;34421;48.944;9.460;2023-03-18T12:28:26;98053.97;;;24.83;22.76
48622;BME280;34421;48.944;9.460;2023-03-18T12:41:30;98052.66;;;23.81;22.66
48622;BME280;34421;48.944;9.460;2023-03-18T12:44:09;98050.56;;;23.78;22.19
48622;BME280;34421;48.944;9.460;2023-03-18T12:46:41;98047.53;;;23.66;23.17
48622;BME280;34421;48.944;9.460;2023-03-18T12:49:31;98039.31;;;23.57;22.81
48622;BME280;34421;48.944;9.460;2023-03-18T12:54:24;98049.34;;;23.20;22.92
48622;BME280;34421;48.944;9.460;2023-03-18T12:56:52;98051.03;;;23.16;23.02
48622;BME280;34421;48.944;9.460;2023-03-18T12:59:21;98037.19;;;23.18;22.79
48622;BME280;34421;48.944;9.460;2023-03-18T13:01:52;98035.53;;;23.17;23.31
48622;BME280;34421;48.944;9.460;2023-03-18T13:04:23;98034.75;;;23.16;23.05
48622;BME280;34421;48.944;9.460;2023-03-18T13:09:31;98029.91;;;23.13;23.87
48622;BME280;34421;48.944;9.460;2023-03-18T13:14:42;98030.72;;;22.86;23.47
48622;BME280;34421;48.944;9.460;2023-03-18T13:17:13;98027.91;;;22.64;23.27
48622;BME280;34421;48.944;9.460;2023-03-18T13:19:41;98024.03;;;22.51;23.09
48622;BME280;34421;48.944;9.460;2023-03-18T13:32:07;98020.59;;;22.32;23.98
48622;BME280;34421;48.944;9.460;2023-03-18T13:34:45;98020.78;;;22.35;23.42
48622;BME280;34421;48.944;9.460;2023-03-18T13:42:28;98011.78;;;22.53;23.04
48622;BME280;34421;48.944;9.460;2023-03-18T13:47:20;98011.91;;;22.90;22.52
48622;BME280;34421;48.944;9.460;2023-03-18T13:49:46;98011.13;;;23.03;22.74
48622;BME280;34421;48.944;9.460;2023-03-18T13:52:24;98008.19;;;23.13;23.08
48622;BME280;34421;48.944;9.460;2023-03-18T13:54:49;98002.16;;;23.16;22.51
48622;BME280;34421;48.944;9.460;2023-03-18T13:57:17;98005.81;;;23.12;22.78
48622;BME280;34421;48.944;9.460;2023-03-18T13:59:43;98003.41;;;22.96;22.15
48622;BME280;34421;48.944;9.460;2023-03-18T14:04:52;98000.84;;;22.86;22.23
48622;BME280;34421;48.944;9.460;2023-03-18T14:07:18;97996.72;;;22.89;23.04
48622;BME280;34421;48.944;9.460;2023-03-18T14:09:48;98007.72;;;22.97;22.90
48622;BME280;34421;48.944;9.460;2023-03-18T14:12:22;97995.75;;;23.12;23.12
48622;BME280;34421;48.944;9.460;2023-03-18T14:15:03;97998.31;;;23.31;22.77
48622;BME280;34421;48.944;9.460;2023-03-18T14:20:21;97994.31;;;23.65;22.72
48622;BME280;34421;48.944;9.460;2023-03-18T14:22:48;97995.41;;;23.78;22.78
48622;BME280;34421;48.944;9.460;2023-03-18T14:27:44;97995.66;;;23.54;22.98
48622;BME280;34421;48.944;9.460;2023-03-18T14:30:44;97988.22;;;23.46;22.53
48622;BME280;34421;48.944;9.460;2023-03-18T14:33:03;97987.59;;;23.49;22.46
48622;BME280;34421;48.944;9.460;2023-03-18T14:35:32;97976.75;;;23.49;22.38
48622;BME280;34421;48.944;9.460;2023-03-18T14:40:42;97976.38;;;23.64;22.67
48622;BME280;34421;48.944;9.460;2023-03-18T14:43:10;97971.13;;;23.67;22.67
48622;BME280;34421;48.944;9.460;2023-03-18T14:45:40;97976.19;;;23.74;22.42
48622;BME280;34421;48.944;9.460;2023-03-18T14:50:53;97969.00;;;23.56;21.97
48622;BME280;34421;48.944;9.460;2023-03-18T14:55:46;97972.78;;;23.55;22.59
48622;BME280;34421;48.944;9.460;2023-03-18T14:58:15;97974.91;;;23.58;23.40
48622;BME280;34421;48.944;9.460;2023-03-18T15:00:41;97972.50;;;23.56;23.00
48622;BME280;34421;48.944;9.460;2023-03-18T15:03:15;97964.41;;;23.65;22.47
48622;BME280;34421;48.944;9.460;2023-03-18T15:05:42;97959.97;;;23.69;22.25
48622;BME280;34421;48.944;9.460;2023-03-18T15:08:20;97964.34;;;23.56;23.58
48622;BME280;34421;48.944;9.460;2023-03-18T15:10:46;97966.72;;;23.35;24.71